createdAt,value
2018-04-15T00:02:07.401Z,37.88
2018-04-15T00:04:35.661Z,37.50
2018-04-15T00:07:04.676Z,36.78
2018-04-15T00:09:32.976Z,38.63
2018-04-15T00:12:01.236Z,38.75
2018-04-15T00:14:29.527Z,36.85
2018-04-15T00:16:57.801Z,38.53
2018-04-15T00:19:26.060Z,38.35
2018-04-15T00:21:54.365Z,38.40
2018-04-15T00:24:22.644Z,36.50
2018-04-15T00:26:51.021Z,37.08
2018-04-15T00:29:19.275Z,37.13
2018-04-15T00:31:47.532Z,36.58
2018-04-15T00:34:15.793Z,37.35
2018-04-15T00:36:44.817Z,37.78
2018-04-15T00:39:13.113Z,37.53
2018-04-15T00:41:41.364Z,39.22
2018-04-15T00:44:09.624Z,37.63
2018-04-15T00:46:37.878Z,36.72
2018-04-15T00:49:06.884Z,36.85
2018-04-15T00:51:35.139Z,40.10
2018-04-15T00:54:16.096Z,37.45
2018-04-15T00:56:44.461Z,37.20
2018-04-15T00:59:12.724Z,36.38
2018-04-15T01:01:40.985Z,38.50
2018-04-15T01:04:09.275Z,37.92
2018-04-15T01:06:37.535Z,36.58
2018-04-15T01:09:05.841Z,37.80
2018-04-15T01:11:34.103Z,39.80
2018-04-15T01:14:02.347Z,39.40
2018-04-15T01:16:30.604Z,40.15
2018-04-15T01:18:59.624Z,40.40
2018-04-15T01:21:27.919Z,39.67
2018-04-15T01:23:56.193Z,38.47
2018-04-15T01:26:24.467Z,39.83
2018-04-15T01:28:52.712Z,37.67
2018-04-15T01:31:21.749Z,37.17
2018-04-15T01:33:49.999Z,38.67
2018-04-15T01:36:18.300Z,37.90
2018-04-15T01:38:46.578Z,39.67
2018-04-15T01:41:14.943Z,38.10
2018-04-15T01:43:43.191Z,38.40
2018-04-15T01:46:11.442Z,37.15
2018-04-15T01:48:40.459Z,36.40
2018-04-15T01:51:08.707Z,36.50
2018-04-15T01:53:37.725Z,36.60
2018-04-15T01:56:06.086Z,35.28
2018-04-15T01:58:34.323Z,37.13
2018-04-15T02:01:02.564Z,35.20
2018-04-15T02:03:30.860Z,41.30
2018-04-15T02:05:59.103Z,39.53
2018-04-15T02:08:27.365Z,39.97
2018-04-15T02:10:56.376Z,38.78
2018-04-15T02:13:24.635Z,39.00
2018-04-15T02:15:53.656Z,41.05
2018-04-15T02:18:21.948Z,37.70
2018-04-15T02:20:50.196Z,39.80
2018-04-15T02:23:18.471Z,39.72
2018-04-15T02:25:46.781Z,39.90
2018-04-15T02:28:15.032Z,41.37
2018-04-15T02:30:43.324Z,40.88
2018-04-15T02:33:11.609Z,40.10
2018-04-15T02:35:39.852Z,40.53
2018-04-15T02:38:08.113Z,38.20
2018-04-15T02:40:37.133Z,42.28
2018-04-15T02:43:05.384Z,40.05
2018-04-15T02:45:33.637Z,42.55
2018-04-15T02:48:02.661Z,45.30
2018-04-15T02:50:30.908Z,43.78
2018-04-15T02:52:59.962Z,41.13
2018-04-15T02:55:28.205Z,41.67
2018-04-15T02:57:56.511Z,42.25
2018-04-15T03:00:24.803Z,41.90
2018-04-15T03:02:53.166Z,42.33
2018-04-15T03:05:21.429Z,41.63
2018-04-15T03:07:49.693Z,42.47
2018-04-15T03:10:17.938Z,41.40
2018-04-15T03:12:47.081Z,40.78
2018-04-15T03:15:15.328Z,40.83
2018-04-15T03:17:43.576Z,41.97
2018-04-15T03:20:11.830Z,40.05
2018-04-15T03:22:40.185Z,41.53
2018-04-15T03:25:08.442Z,39.10
2018-04-15T03:27:36.729Z,39.80
2018-04-15T03:30:04.980Z,40.70
2018-04-15T03:32:33.233Z,40.90
2018-04-15T03:35:02.257Z,40.58
2018-04-15T03:37:30.507Z,41.53
2018-04-15T03:39:59.546Z,42.65
2018-04-15T03:42:27.816Z,41.78
2018-04-15T03:44:56.076Z,41.17
2018-04-15T03:47:24.315Z,41.83
2018-04-15T03:49:53.360Z,41.35
2018-04-15T03:52:21.608Z,41.90
2018-04-15T03:54:49.867Z,41.70
2018-04-15T03:57:18.886Z,43.45
2018-04-15T03:59:47.140Z,43.70
2018-04-15T04:02:16.186Z,43.70
2018-04-15T04:04:44.440Z,43.75
2018-04-15T04:07:12.732Z,43.50
2018-04-15T04:09:40.983Z,43.00
2018-04-15T04:12:09.229Z,43.15
2018-04-15T04:14:38.278Z,42.13
2018-04-15T04:17:06.524Z,41.40
2018-04-15T04:19:46.588Z,42.17
2018-04-15T04:22:26.792Z,42.70
2018-04-15T04:25:07.019Z,44.60
2018-04-15T04:27:35.272Z,42.40
2018-04-15T04:30:03.582Z,42.62
2018-04-15T04:32:31.820Z,43.40
2018-04-15T04:35:00.082Z,43.20
2018-04-15T04:37:28.379Z,43.30
2018-04-15T04:39:56.642Z,42.05
2018-04-15T04:42:24.941Z,40.97
2018-04-15T04:44:53.216Z,41.47
2018-04-15T04:47:21.488Z,40.63
2018-04-15T04:49:49.759Z,40.28
2018-04-15T04:52:18.076Z,38.55
2018-04-15T04:54:46.321Z,36.60
2018-04-15T04:57:14.584Z,36.00
2018-04-15T04:59:42.861Z,34.65
2018-04-15T05:02:11.133Z,34.90
2018-04-15T05:04:39.435Z,35.47
2018-04-15T05:07:07.788Z,34.58
2018-04-15T05:09:36.035Z,34.42
2018-04-15T05:12:04.293Z,33.47
2018-04-15T05:14:33.345Z,33.67
2018-04-15T05:17:01.597Z,32.70
2018-04-15T05:19:29.849Z,31.08
2018-04-15T05:21:58.875Z,30.42
2018-04-15T05:24:27.142Z,32.28
2018-04-15T05:26:55.436Z,32.20
2018-04-15T05:29:23.682Z,32.45
2018-04-15T05:31:51.980Z,33.20
2018-04-15T05:34:20.232Z,33.95
2018-04-15T05:36:48.484Z,35.67
2018-04-15T05:39:17.508Z,34.28
2018-04-15T05:41:45.774Z,35.28
2018-04-15T05:44:14.096Z,36.80
2018-04-15T05:46:42.361Z,32.65
2018-04-15T05:49:10.632Z,33.88
2018-04-15T05:51:38.887Z,33.20
2018-04-15T05:54:07.141Z,32.40
2018-04-15T05:56:36.275Z,32.72
2018-04-15T05:59:04.527Z,33.20
2018-04-15T06:01:32.776Z,32.78
2018-04-15T06:04:01.799Z,30.50
2018-04-15T06:06:30.076Z,32.95
2018-04-15T06:08:58.367Z,34.95
2018-04-15T06:11:26.629Z,32.13
2018-04-15T06:13:54.900Z,32.25
2018-04-15T06:16:23.155Z,32.10
2018-04-15T06:18:52.193Z,31.07
2018-04-15T06:21:20.473Z,30.13
2018-04-15T06:23:48.747Z,29.73
2018-04-15T06:26:17.025Z,29.67
2018-04-15T06:28:45.318Z,28.27
2018-04-15T06:31:13.664Z,30.37
2018-04-15T06:33:41.948Z,30.37
2018-04-15T06:36:10.205Z,29.60
2018-04-15T06:38:38.503Z,31.93
2018-04-15T06:41:06.756Z,28.73
2018-04-15T06:43:35.045Z,29.80
2018-04-15T06:46:03.319Z,29.27
2018-04-15T06:48:31.580Z,29.80
2018-04-15T06:50:59.844Z,28.67
2018-04-15T06:53:28.107Z,27.57
2018-04-15T06:55:57.948Z,28.77
2018-04-15T06:58:26.213Z,27.57
2018-04-15T07:00:54.473Z,28.10
2018-04-15T07:03:23.504Z,27.73
2018-04-15T07:05:51.755Z,26.83
2018-04-15T07:08:20.009Z,30.23
2018-04-15T07:10:49.050Z,29.60
2018-04-15T07:13:17.328Z,28.20
2018-04-15T07:15:45.576Z,29.50
2018-04-15T07:18:13.882Z,34.27
2018-04-15T07:20:42.158Z,28.13
2018-04-15T07:23:10.427Z,28.93
2018-04-15T07:25:38.698Z,28.67
2018-04-15T07:28:06.959Z,29.97
2018-04-15T07:30:35.288Z,30.57
2018-04-15T07:33:03.550Z,30.10
2018-04-15T07:35:31.943Z,31.17
2018-04-15T07:38:00.196Z,30.23
2018-04-15T07:40:28.557Z,30.43
2018-04-15T07:42:56.840Z,29.47
2018-04-15T07:45:25.088Z,29.70
2018-04-15T07:47:53.353Z,29.33
2018-04-15T07:50:21.621Z,30.93
2018-04-15T07:52:50.648Z,29.37
2018-04-15T07:55:18.917Z,31.27
2018-04-15T07:57:47.195Z,29.80
2018-04-15T08:00:15.469Z,30.70
2018-04-15T08:02:43.725Z,32.90
2018-04-15T08:05:12.007Z,30.23
2018-04-15T08:07:40.363Z,29.80
2018-04-15T08:10:08.588Z,27.80
2018-04-15T08:12:36.824Z,30.63
2018-04-15T08:15:05.094Z,30.63
2018-04-15T08:17:34.125Z,29.33
2018-04-15T08:20:02.436Z,30.10
2018-04-15T08:22:30.667Z,26.90
2018-04-15T08:24:58.925Z,25.20
2018-04-15T08:27:27.174Z,25.33
2018-04-15T08:29:56.195Z,26.17
2018-04-15T08:32:24.443Z,27.30
2018-04-15T08:34:53.492Z,26.00
2018-04-15T08:37:21.741Z,27.10
2018-04-15T08:39:50.004Z,28.13
2018-04-15T08:42:18.252Z,27.20
2018-04-15T08:44:47.281Z,27.43
2018-04-15T08:47:15.586Z,27.87
2018-04-15T08:49:43.841Z,27.80
2018-04-15T08:52:12.097Z,26.97
2018-04-15T08:54:40.356Z,25.67
2018-04-15T08:57:09.376Z,25.43
2018-04-15T08:59:37.668Z,25.47
2018-04-15T09:02:05.920Z,25.80
2018-04-15T09:04:34.187Z,25.27
2018-04-15T09:07:02.509Z,26.50
2018-04-15T09:09:30.756Z,26.37
2018-04-15T09:11:59.023Z,27.07
2018-04-15T09:14:27.284Z,26.47
2018-04-15T09:16:56.347Z,26.93
2018-04-15T09:19:24.599Z,25.63
2018-04-15T09:21:52.880Z,25.63
2018-04-15T09:24:21.487Z,25.07
2018-04-15T09:26:49.825Z,24.43
2018-04-15T09:29:18.337Z,24.07
2018-04-15T09:31:46.593Z,26.80
2018-04-15T09:34:14.900Z,26.23
2018-04-15T09:36:43.232Z,29.33
2018-04-15T09:39:11.499Z,29.17
2018-04-15T09:41:39.830Z,30.03
2018-04-15T09:44:09.146Z,30.40
2018-04-15T09:46:38.192Z,31.47
2018-04-15T09:49:06.502Z,33.03
2018-04-15T09:51:34.751Z,31.97
2018-04-15T09:54:03.090Z,31.40
2018-04-15T09:56:31.540Z,32.77
2018-04-15T09:58:59.780Z,31.77
2018-04-15T10:01:28.142Z,33.30
2018-04-15T10:03:56.409Z,33.80
2018-04-15T10:06:24.671Z,32.77
2018-04-15T10:08:52.937Z,32.90
2018-04-15T10:11:21.190Z,33.67
2018-04-15T10:13:50.200Z,32.30
2018-04-15T10:16:18.463Z,33.23
2018-04-15T10:18:47.480Z,32.67
2018-04-15T10:23:50.414Z,32.63
2018-04-15T10:26:18.667Z,32.23
2018-04-15T10:28:46.931Z,32.73
2018-04-15T10:31:15.222Z,33.33
2018-04-15T10:33:43.473Z,31.67
2018-04-15T10:36:11.735Z,31.37
2018-04-15T10:38:40.791Z,29.40
2018-04-15T10:41:09.017Z,29.93
2018-04-15T10:43:37.276Z,29.70
2018-04-15T10:46:06.366Z,29.83
2018-04-15T10:48:34.577Z,30.60
2018-04-15T10:51:02.864Z,29.53
2018-04-15T10:53:31.139Z,29.53
2018-04-15T10:55:59.429Z,27.83
2018-04-15T10:58:27.695Z,28.80
2018-04-15T11:00:55.936Z,26.37
2018-04-15T11:03:24.188Z,26.73
2018-04-15T11:05:53.236Z,27.13
2018-04-15T11:08:21.492Z,25.10
2018-04-15T11:10:49.793Z,27.27
2018-04-15T11:13:18.064Z,26.77
2018-04-15T11:15:46.327Z,25.87
2018-04-15T11:18:14.603Z,25.70
2018-04-15T11:20:42.852Z,27.60
2018-04-15T11:23:11.118Z,25.47
2018-04-15T11:25:40.132Z,26.77
2018-04-15T11:28:08.424Z,27.20
2018-04-15T11:30:36.688Z,25.33
2018-04-15T11:33:04.933Z,26.67
2018-04-15T11:35:33.956Z,26.37
2018-04-15T11:38:02.240Z,25.27
2018-04-15T11:40:30.495Z,26.60
2018-04-15T11:42:58.792Z,24.97
2018-04-15T11:45:27.076Z,25.50
2018-04-15T11:47:55.411Z,26.43
2018-04-15T11:50:24.431Z,26.27
2018-04-15T11:52:52.689Z,25.40
2018-04-15T11:55:20.935Z,26.80
2018-04-15T11:57:49.273Z,27.57
2018-04-15T12:00:17.537Z,27.10
2018-04-15T12:02:45.799Z,29.37
2018-04-15T12:05:14.077Z,26.50
2018-04-15T12:07:42.333Z,27.27
2018-04-15T12:10:10.622Z,27.17
2018-04-15T12:12:39.603Z,25.80
2018-04-15T12:15:07.919Z,28.20
2018-04-15T12:17:36.172Z,27.77
2018-04-15T12:20:04.433Z,22.77
2018-04-15T12:22:32.745Z,29.40
2018-04-15T12:25:01.014Z,27.77
2018-04-15T12:27:29.290Z,24.90
2018-04-15T12:29:57.570Z,23.40
2018-04-15T12:32:25.835Z,26.20
2018-04-15T12:34:54.084Z,25.97
2018-04-15T12:37:22.400Z,25.50
2018-04-15T12:39:50.668Z,25.77
2018-04-15T12:42:18.942Z,27.13
2018-04-15T12:44:47.194Z,27.87
2018-04-15T12:47:15.512Z,27.40
2018-04-15T12:49:43.772Z,30.90
2018-04-15T12:52:12.044Z,29.97
2018-04-15T12:54:40.325Z,32.40
2018-04-15T12:57:08.601Z,29.27
2018-04-15T12:59:36.902Z,28.70
2018-04-15T13:02:05.261Z,29.20
2018-04-15T13:04:33.528Z,28.67
2018-04-15T13:07:01.805Z,27.00
2018-04-15T13:09:30.073Z,27.03
2018-04-15T13:11:58.324Z,26.30
2018-04-15T13:14:26.580Z,25.17
2018-04-15T13:16:55.637Z,27.87
2018-04-15T13:19:23.855Z,26.23
2018-04-15T13:21:52.873Z,25.53
2018-04-15T13:24:21.174Z,25.87
2018-04-15T13:26:49.440Z,24.80
2018-04-15T13:29:17.704Z,24.77
2018-04-15T13:31:45.984Z,22.67
2018-04-15T13:34:14.244Z,24.30
2018-04-15T13:36:42.496Z,22.50
2018-04-15T13:39:11.515Z,23.17
2018-04-15T13:41:39.826Z,23.33
2018-04-15T13:44:08.077Z,24.53
2018-04-15T13:46:36.368Z,23.40
2018-04-15T13:49:04.636Z,23.10
2018-04-15T13:51:32.884Z,23.83
2018-04-15T13:54:01.175Z,25.27
2018-04-15T13:56:29.411Z,25.73
2018-04-15T13:58:58.445Z,28.30
2018-04-15T14:01:26.700Z,29.10
2018-04-15T14:03:54.962Z,27.70
2018-04-15T14:06:23.985Z,29.03
2018-04-15T14:08:52.239Z,30.43
2018-04-15T14:11:20.548Z,28.93
2018-04-15T14:13:48.812Z,29.30
2018-04-15T14:16:17.110Z,28.60
2018-04-15T14:18:45.380Z,28.23
2018-04-15T14:21:13.630Z,26.67
2018-04-15T14:23:41.891Z,24.17
2018-04-15T14:26:10.209Z,23.70
2018-04-15T14:28:38.464Z,24.10
2018-04-15T14:31:06.716Z,22.67
2018-04-15T14:33:34.984Z,23.90
2018-04-15T14:36:03.998Z,21.93
2018-04-15T14:38:32.283Z,22.00
2018-04-15T14:41:00.539Z,21.57
2018-04-15T14:43:28.850Z,21.90
2018-04-15T14:45:57.096Z,21.87
2018-04-15T14:48:25.353Z,20.73
2018-04-15T14:50:54.382Z,19.07
2018-04-15T14:53:22.641Z,19.53
2018-04-15T14:55:50.936Z,20.53
2018-04-15T14:58:19.188Z,20.23
2018-04-15T15:00:47.448Z,18.53
2018-04-15T15:03:15.764Z,18.50
2018-04-15T15:05:44.039Z,19.50
2018-04-15T15:08:12.288Z,20.03
2018-04-15T15:10:40.561Z,20.57
2018-04-15T15:13:08.866Z,19.67
2018-04-15T15:15:37.119Z,19.17
2018-04-15T15:18:05.418Z,19.93
2018-04-15T15:20:33.690Z,20.77
2018-04-15T15:23:01.945Z,19.60
2018-04-15T15:25:30.244Z,19.53
2018-04-15T15:27:58.503Z,19.43
2018-04-15T15:30:26.792Z,20.27
2018-04-15T15:32:55.043Z,20.10
2018-04-15T15:35:23.345Z,19.87
2018-04-15T15:37:51.606Z,19.77
2018-04-15T15:40:19.885Z,17.73
2018-04-15T15:42:48.142Z,20.53
2018-04-15T15:45:16.415Z,19.37
2018-04-15T15:47:44.676Z,18.30
2018-04-15T15:50:13.695Z,19.10
2018-04-15T15:52:41.951Z,19.60
2018-04-15T15:55:10.985Z,19.57
2018-04-15T15:57:39.249Z,19.17
2018-04-15T16:00:07.554Z,18.80
2018-04-15T16:02:35.751Z,18.90
2018-04-15T16:05:04.795Z,18.73
2018-04-15T16:07:33.104Z,18.20
2018-04-15T16:10:01.444Z,17.20
2018-04-15T16:12:29.701Z,17.10
2018-04-15T16:14:57.980Z,19.63
2018-04-15T16:17:26.241Z,19.63
2018-04-15T16:19:55.263Z,19.90
2018-04-15T16:22:23.513Z,18.97
2018-04-15T16:24:51.767Z,19.00
2018-04-15T16:27:20.801Z,19.10
2018-04-15T16:29:49.093Z,18.20
2018-04-15T16:32:17.339Z,21.77
2018-04-15T16:34:45.605Z,19.40
2018-04-15T16:37:14.607Z,19.97
2018-04-15T16:39:42.909Z,19.10
2018-04-15T16:42:11.155Z,18.70
2018-04-15T16:44:39.417Z,19.07
2018-04-15T16:47:08.428Z,19.97
2018-04-15T16:49:36.698Z,18.63
2018-04-15T16:52:04.946Z,18.70
2018-04-15T16:54:33.277Z,18.90
2018-04-15T16:57:01.545Z,20.33
2018-04-15T16:59:29.809Z,19.63
2018-04-15T17:01:58.062Z,19.47
2018-04-15T17:04:27.083Z,19.73
2018-04-15T17:06:55.367Z,19.93
2018-04-15T17:09:23.625Z,19.57
2018-04-15T17:11:51.919Z,21.07
2018-04-15T17:14:20.168Z,19.23
2018-04-15T17:16:48.430Z,18.53
2018-04-15T17:19:17.499Z,18.47
2018-04-15T17:21:45.749Z,20.63
2018-04-15T17:24:14.008Z,19.03
2018-04-15T17:26:42.270Z,19.47
2018-04-15T17:29:10.559Z,19.20
2018-04-15T17:31:38.822Z,20.27
2018-04-15T17:34:07.117Z,18.40
2018-04-15T17:36:35.394Z,17.80
2018-04-15T17:39:03.651Z,17.33
2018-04-15T17:41:31.914Z,16.93
2018-04-15T17:44:00.174Z,16.97
2018-04-15T17:46:29.309Z,17.53
2018-04-15T17:48:57.555Z,16.53
2018-04-15T17:51:25.818Z,15.97
2018-04-15T17:53:54.834Z,16.83
2018-04-15T17:56:23.091Z,16.53
2018-04-15T17:58:51.429Z,18.03
2018-04-15T18:01:19.681Z,16.80
2018-04-15T18:03:47.961Z,17.17
2018-04-15T18:06:16.235Z,16.73
2018-04-15T18:08:44.490Z,20.77
2018-04-15T18:11:12.755Z,20.40
2018-04-15T18:13:41.014Z,20.37
2018-04-15T18:16:10.058Z,22.20
2018-04-15T18:18:38.332Z,18.27
2018-04-15T18:21:06.717Z,18.23
2018-04-15T18:23:34.957Z,18.27
2018-04-15T18:26:03.233Z,18.50
2018-04-15T18:28:31.527Z,18.93
2018-04-15T18:30:59.788Z,18.20
2018-04-15T18:33:28.042Z,17.70
2018-04-15T18:35:56.339Z,18.73
2018-04-15T18:38:24.574Z,18.20
2018-04-15T18:40:53.664Z,20.20
2018-04-15T18:43:22.754Z,19.63
2018-04-15T18:45:50.995Z,19.87
2018-04-15T18:48:20.017Z,21.93
2018-04-15T18:50:48.281Z,22.33
2018-04-15T18:53:16.538Z,20.87
2018-04-15T18:55:44.802Z,22.23
2018-04-15T18:58:13.068Z,22.17
2018-04-15T19:00:41.328Z,21.90
2018-04-15T19:03:09.586Z,19.50
2018-04-15T19:05:38.616Z,17.70
2018-04-15T19:08:06.861Z,16.97
2018-04-15T19:10:35.122Z,17.50
2018-04-15T19:13:04.618Z,17.40
2018-04-15T19:15:32.857Z,16.00
2018-04-15T19:18:01.116Z,17.20
2018-04-15T19:20:29.380Z,17.33
2018-04-15T19:22:57.644Z,17.00
2018-04-15T19:25:26.655Z,18.23
2018-04-15T19:27:54.919Z,18.37
2018-04-15T19:30:23.201Z,18.70
2018-04-15T19:32:51.465Z,18.83
2018-04-15T19:35:19.721Z,18.43
2018-04-15T19:37:48.756Z,19.13
2018-04-15T19:40:17.018Z,18.93
2018-04-15T19:42:45.277Z,19.20
2018-04-15T19:45:14.326Z,19.83
2018-04-15T19:47:42.632Z,19.33
2018-04-15T19:50:12.380Z,18.87
2018-04-15T19:52:40.655Z,18.87
2018-04-15T19:55:09.228Z,18.83
2018-04-15T19:57:38.245Z,19.27
2018-04-15T20:00:06.502Z,19.33
2018-04-15T20:02:34.781Z,19.03
2018-04-15T20:05:03.028Z,18.40
2018-04-15T20:07:32.105Z,18.43
2018-04-15T20:10:00.364Z,18.87
2018-04-15T20:12:28.610Z,19.73
2018-04-15T20:14:56.869Z,18.27
2018-04-15T20:17:25.129Z,18.83
2018-04-15T20:19:54.148Z,18.77
2018-04-15T20:22:22.414Z,18.60
2018-04-15T20:24:50.672Z,20.13
2018-04-15T20:27:18.920Z,19.57
2018-04-15T20:29:47.185Z,20.13
2018-04-15T20:32:15.440Z,19.37
2018-04-15T20:34:43.700Z,21.03
2018-04-15T20:37:11.962Z,20.00
2018-04-15T20:39:41.788Z,20.30
2018-04-15T20:42:10.067Z,19.87
2018-04-15T20:44:38.329Z,20.17
2018-04-15T20:47:06.625Z,20.30
2018-04-15T20:49:34.876Z,20.57
2018-04-15T20:52:03.180Z,19.40
2018-04-15T20:54:31.452Z,20.53
2018-04-15T20:56:59.723Z,20.23
2018-04-15T20:59:28.043Z,20.27
2018-04-15T21:01:57.076Z,18.73
2018-04-15T21:04:25.368Z,20.43
2018-04-15T21:06:53.628Z,20.23
2018-04-15T21:09:21.885Z,19.83
2018-04-15T21:11:50.155Z,19.20
2018-04-15T21:14:19.178Z,20.43
2018-04-15T21:16:47.436Z,20.73
2018-04-15T21:19:15.688Z,20.67
2018-04-15T21:21:44.734Z,21.27
2018-04-15T21:24:12.985Z,22.10
2018-04-15T21:26:41.237Z,20.83
2018-04-15T21:29:10.290Z,20.43
2018-04-15T21:31:38.561Z,21.13
2018-04-15T21:34:06.834Z,21.13
2018-04-15T21:36:35.113Z,21.40
2018-04-15T21:39:03.489Z,20.87
2018-04-15T21:41:31.743Z,19.57
2018-04-15T21:44:00.028Z,19.97
2018-04-15T21:46:28.263Z,20.40
2018-04-15T21:48:57.351Z,19.90
2018-04-15T21:51:25.581Z,20.07
2018-04-15T21:53:53.844Z,19.70
2018-04-15T21:56:22.096Z,19.67
2018-04-15T21:58:50.418Z,19.03
2018-04-15T22:01:18.668Z,18.77
2018-04-15T22:03:46.933Z,19.40
2018-04-15T22:06:15.192Z,20.53
2018-04-15T22:08:44.329Z,18.37
2018-04-15T22:11:12.589Z,17.57
2018-04-15T22:13:40.846Z,18.27
2018-04-15T22:16:09.143Z,18.20
2018-04-15T22:18:37.396Z,18.97
2018-04-15T22:21:05.701Z,19.17
2018-04-15T22:23:33.955Z,18.30
2018-04-15T22:26:02.229Z,19.57
2018-04-15T22:28:30.491Z,18.73
2018-04-15T22:30:59.558Z,19.07
2018-04-15T22:33:27.804Z,19.23
2018-04-15T22:35:56.073Z,19.83
2018-04-15T22:38:24.337Z,19.63
2018-04-15T22:40:52.626Z,19.70
2018-04-15T22:43:20.899Z,18.83
2018-04-15T22:45:49.161Z,18.30
2018-04-15T22:48:17.423Z,20.17
2018-04-15T22:50:45.684Z,19.50
2018-04-15T22:53:14.699Z,19.40
2018-04-15T22:55:42.960Z,18.83
2018-04-15T22:58:11.216Z,19.40
2018-04-15T23:00:40.379Z,19.30
2018-04-15T23:03:08.637Z,18.70
2018-04-15T23:05:36.891Z,18.77
2018-04-15T23:08:05.203Z,19.33
2018-04-15T23:10:33.455Z,18.73
2018-04-15T23:13:01.718Z,19.70
2018-04-15T23:15:29.975Z,20.43
2018-04-15T23:17:59.019Z,21.00
2018-04-15T23:20:27.273Z,19.83
2018-04-15T23:22:55.583Z,19.40
2018-04-15T23:25:23.917Z,18.73
2018-04-15T23:27:53.071Z,17.47
2018-04-15T23:30:21.316Z,18.77
2018-04-15T23:32:49.618Z,19.80
2018-04-15T23:35:19.372Z,18.57
2018-04-15T23:37:47.675Z,18.60
2018-04-15T23:40:15.937Z,17.83
2018-04-15T23:42:44.196Z,19.90
2018-04-15T23:45:12.455Z,18.57
2018-04-15T23:47:41.507Z,18.77
2018-04-15T23:50:09.769Z,20.07
2018-04-15T23:52:38.029Z,20.43
2018-04-15T23:55:06.324Z,20.40
2018-04-15T23:57:34.591Z,20.47
